METAR Data
IDs: Format: Raw Decoded Include TAF

Data at: 1352 UTC 26 Feb 2021

EGGW 261320Z AUTO 31008KT 9999 FEW037 10/00 Q1037